Time;durP1;ratioP1;P1;durP2;ratioP2;P2;SDS_P1;SDS_P2;PMS_P1;PMS_P2;Temp;Humidity;BMP_temperature;BMP_pressure;BME280_temperature;BME280_humidity;BME280_pressure;Samples;Min_cycle;Max_cycle;Signal;HPM_P1;HPM_P2
2021/05/11 00:01:08;;;;;;;5.80;5.20;;;15.10;99.90;;;;;;5031195;28;20199;-77
2021/05/11 00:03:34;;;;;;;5.97;5.37;;;15.10;99.90;;;;;;5014683;28;20175;-78
2021/05/11 00:05:59;;;;;;;7.03;5.57;;;15.10;99.90;;;;;;5014858;28;20209;-78
2021/05/11 00:08:25;;;;;;;5.30;4.80;;;15.00;99.90;;;;;;5031332;28;20218;-77
2021/05/11 00:10:51;;;;;;;5.97;5.07;;;15.10;99.90;;;;;;5031755;28;20704;-78
2021/05/11 00:13:16;;;;;;;5.80;4.83;;;15.00;99.90;;;;;;5014614;28;20577;-78
2021/05/11 00:15:42;;;;;;;5.20;4.70;;;15.00;99.90;;;;;;5014452;28;20246;-77
2021/05/11 00:18:07;;;;;;;5.97;4.60;;;15.00;99.90;;;;;;5014796;28;20665;-78
2021/05/11 00:20:33;;;;;;;5.00;4.33;;;15.00;99.90;;;;;;5030821;28;20214;-75
2021/05/11 00:22:58;;;;;;;4.63;3.70;;;15.00;99.90;;;;;;5014320;28;20190;-78
2021/05/11 00:25:24;;;;;;;4.37;3.43;;;15.00;99.90;;;;;;5014172;28;20193;-78
2021/05/11 00:27:49;;;;;;;5.63;3.43;;;15.00;99.90;;;;;;5014407;28;20226;-78
2021/05/11 00:30:15;;;;;;;4.13;3.40;;;15.00;99.90;;;;;;5014469;28;20257;-78
2021/05/11 00:32:41;;;;;;;4.07;3.30;;;15.00;99.90;;;;;;5030641;28;20218;-78
2021/05/11 00:35:07;;;;;;;4.80;3.63;;;15.00;99.90;;;;;;5030629;28;20179;-77
2021/05/11 00:37:32;;;;;;;4.43;3.60;;;15.00;99.90;;;;;;5030686;28;20207;-77
2021/05/11 00:39:58;;;;;;;4.43;3.60;;;14.90;99.90;;;;;;5014105;28;20178;-77
2021/05/11 00:42:23;;;;;;;4.63;3.53;;;14.90;99.90;;;;;;5014406;28;20185;-78
2021/05/11 00:44:49;;;;;;;4.63;3.40;;;14.90;99.90;;;;;;5014095;28;20179;-78
2021/05/11 00:47:15;;;;;;;4.37;3.60;;;14.80;99.90;;;;;;4997655;28;20219;-78
2021/05/11 00:49:40;;;;;;;4.23;3.53;;;14.80;99.90;;;;;;5014341;28;20179;-78
2021/05/11 00:52:06;;;;;;;3.80;3.50;;;14.80;99.90;;;;;;5014313;28;20211;-78
2021/05/11 00:54:32;;;;;;;4.17;3.00;;;14.80;99.90;;;;;;5014243;28;20179;-78
2021/05/11 00:56:58;;;;;;;5.63;3.40;;;14.70;99.90;;;;;;5014470;28;20199;-78
2021/05/11 01:01:49;;;;;;;3.27;2.97;;;14.70;99.90;;;;;;5014403;28;20175;-78
2021/05/11 01:04:15;;;;;;;3.30;3.00;;;14.60;99.90;;;;;;5015407;28;20206;-78
2021/05/11 01:06:41;;;;;;;3.33;2.77;;;14.60;99.90;;;;;;5017879;28;20218;-78
2021/05/11 01:09:06;;;;;;;4.50;3.37;;;14.60;99.90;;;;;;5034658;28;20179;-77
2021/05/11 01:11:32;;;;;;;4.87;3.00;;;14.60;99.90;;;;;;5001717;28;20210;-78
2021/05/11 01:13:58;;;;;;;3.00;2.80;;;14.50;99.90;;;;;;5001449;28;20171;-77
2021/05/11 01:16:26;;;;;;;3.60;3.00;;;14.50;99.90;;;;;;5017825;28;20171;-78
2021/05/11 01:18:54;;;;;;;2.80;2.30;;;14.40;99.90;;;;;;5018396;28;20170;-78
2021/05/11 01:30:18;;;;;;;2.73;2.50;;;14.30;99.90;;;;;;4973361;28;20641;-78
2021/05/11 02:23:44;;;;;;;2.73;2.20;;;14.20;99.90;;;;;;5018766;28;20676;-77
2021/05/11 02:26:10;;;;;;;2.83;2.63;;;14.30;99.90;;;;;;5016131;28;20198;-77
2021/05/11 02:28:35;;;;;;;2.77;2.57;;;14.20;99.90;;;;;;5032578;28;20190;-78
2021/05/11 02:31:01;;;;;;;3.20;2.90;;;14.10;99.90;;;;;;5032452;28;20681;-78
2021/05/11 02:33:26;;;;;;;2.63;2.37;;;14.20;99.90;;;;;;5032265;28;20631;-78
2021/05/11 02:35:52;;;;;;;2.60;2.40;;;14.20;99.90;;;;;;4999601;28;20553;-78
2021/05/11 02:38:18;;;;;;;2.60;2.40;;;14.20;99.90;;;;;;5032449;28;20253;-77
2021/05/11 02:40:43;;;;;;;3.00;2.63;;;14.10;99.90;;;;;;5032353;28;20172;-78
2021/05/11 02:43:14;;;;;;;2.50;2.30;;;14.10;99.90;;;;;;5016974;28;20209;-77
2021/05/11 02:45:40;;;;;;;5.70;2.60;;;14.20;99.90;;;;;;5032099;28;20175;-77
2021/05/11 02:48:06;;;;;;;3.83;2.60;;;14.10;99.90;;;;;;5032090;28;20264;-77
2021/05/11 02:50:32;;;;;;;2.80;2.60;;;14.10;99.90;;;;;;5032099;28;20203;-77
2021/05/11 02:52:58;;;;;;;3.30;2.57;;;14.10;99.90;;;;;;5015671;28;20167;-77
2021/05/11 02:55:23;;;;;;;2.80;2.60;;;14.10;99.90;;;;;;4998803;28;20687;-77
2021/05/11 02:57:49;;;;;;;2.90;2.70;;;14.00;99.90;;;;;;5015528;28;20658;-77
2021/05/11 03:00:16;;;;;;;3.57;2.87;;;14.00;99.90;;;;;;4999291;28;20174;-77
2021/05/11 03:02:42;;;;;;;4.87;3.10;;;14.00;99.90;;;;;;5031865;28;20171;-77
2021/05/11 03:05:08;;;;;;;3.30;3.00;;;13.90;99.90;;;;;;5015322;28;20175;-78
2021/05/11 03:07:33;;;;;;;2.93;2.57;;;13.90;99.90;;;;;;5015178;28;20214;-76
2021/05/11 03:09:59;;;;;;;3.40;2.60;;;13.90;99.90;;;;;;5031760;28;20547;-78
2021/05/11 03:12:24;;;;;;;4.57;3.30;;;13.90;99.90;;;;;;5031630;28;20199;-77
2021/05/11 03:14:50;;;;;;;4.27;3.43;;;13.90;99.90;;;;;;5015135;28;20200;-77
2021/05/11 03:17:16;;;;;;;5.53;3.70;;;13.90;99.90;;;;;;5031391;28;20209;-78
2021/05/11 03:19:41;;;;;;;3.67;3.33;;;13.80;99.90;;;;;;5015326;28;20182;-77
2021/05/11 03:22:10;;;;;;;4.13;3.10;;;13.90;99.90;;;;;;5015174;28;20178;-75
2021/05/11 03:24:37;;;;;;;3.70;3.40;;;13.90;99.90;;;;;;5015420;28;20651;-77
2021/05/11 03:27:03;;;;;;;4.13;3.70;;;13.80;99.90;;;;;;5015149;28;20565;-77
2021/05/11 03:29:28;;;;;;;3.90;3.50;;;13.80;99.90;;;;;;5014805;28;20191;-77
2021/05/11 03:31:54;;;;;;;4.37;4.00;;;13.80;99.90;;;;;;5031222;28;20213;-77
2021/05/11 03:34:19;;;;;;;4.90;3.87;;;13.70;99.90;;;;;;5014284;28;20189;-78
2021/05/11 03:36:45;;;;;;;4.00;3.60;;;13.70;99.90;;;;;;5030888;28;20206;-77
2021/05/11 03:39:11;;;;;;;4.13;3.63;;;13.70;99.90;;;;;;5031140;28;20261;-77
2021/05/11 03:41:40;;;;;;;3.97;3.57;;;13.70;99.90;;;;;;5047670;28;20179;-77
2021/05/11 03:44:15;;;;;;;4.03;3.47;;;13.70;99.90;;;;;;5047021;28;20183;-77
2021/05/11 03:46:40;;;;;;;4.43;3.47;;;13.70;99.90;;;;;;5031160;28;20186;-77
2021/05/11 03:49:06;;;;;;;4.10;3.70;;;13.70;99.90;;;;;;5014655;28;20190;-77
2021/05/11 03:51:32;;;;;;;3.83;3.50;;;13.70;99.90;;;;;;5014302;28;20592;-77
2021/05/11 03:53:59;;;;;;;3.87;3.57;;;13.70;99.90;;;;;;5047430;28;20650;-78
2021/05/11 03:56:24;;;;;;;3.97;3.57;;;13.70;99.90;;;;;;5014510;28;20206;-77
2021/05/11 03:58:50;;;;;;;3.30;3.00;;;13.70;99.90;;;;;;5030868;28;20225;-78
2021/05/11 04:01:16;;;;;;;3.47;3.17;;;13.70;99.90;;;;;;5015640;28;20186;-79
2021/05/11 04:03:41;;;;;;;5.83;3.53;;;13.70;99.90;;;;;;5031583;28;20201;-78
2021/05/11 04:06:07;;;;;;;5.23;4.00;;;13.70;99.90;;;;;;5032270;28;20236;-77
2021/05/11 04:16:23;;;;;;;4.10;3.70;;;13.60;99.90;;;;;;5051006;28;20182;-74
2021/05/11 04:18:52;;;;;;;4.17;3.77;;;13.60;99.90;;;;;;5034222;28;20215;-74
2021/05/11 04:21:18;;;;;;;3.97;3.57;;;13.60;99.90;;;;;;5017673;28;20193;-74
2021/05/11 04:23:44;;;;;;;3.57;3.27;;;13.60;99.90;;;;;;5017646;28;20269;-73
2021/05/11 04:26:13;;;;;;;4.60;3.50;;;13.60;99.90;;;;;;5050493;28;20189;-74
2021/05/11 04:28:39;;;;;;;3.53;3.23;;;13.60;99.90;;;;;;5034490;28;20197;-74
2021/05/11 04:31:05;;;;;;;4.03;3.20;;;13.60;99.90;;;;;;5017831;28;20205;-74
2021/05/11 04:33:31;;;;;;;4.37;3.30;;;13.60;99.90;;;;;;5034070;28;20201;-74
2021/05/11 04:35:56;;;;;;;4.37;3.30;;;13.60;99.90;;;;;;5034397;28;20190;-74
2021/05/11 04:38:23;;;;;;;4.10;2.97;;;13.60;99.90;;;;;;5052207;28;20599;-79
2021/05/11 04:40:50;;;;;;;3.40;2.97;;;13.70;99.90;;;;;;5036515;28;20178;-79
2021/05/11 04:46:28;;;;;;;3.40;2.73;;;13.90;99.90;;;;;;5077515;28;20197;-80
2021/05/11 04:48:54;;;;;;;4.33;3.40;;;13.90;99.90;;;;;;5040158;28;20188;-78
2021/05/11 04:51:20;;;;;;;3.50;3.20;;;14.00;99.90;;;;;;5057388;28;20590;-79
2021/05/11 04:53:55;;;;;;;4.80;3.30;;;13.80;99.90;;;;;;5039213;28;20181;-81
2021/05/11 04:56:21;;;;;;;3.17;2.90;;;13.80;99.90;;;;;;5044884;28;20586;-81
2021/05/11 04:58:48;;;;;;;4.50;3.20;;;13.80;99.90;;;;;;5024150;28;20220;-78
2021/05/11 05:01:14;;;;;;;4.40;3.47;;;13.80;99.90;;;;;;5023673;28;20228;-78
2021/05/11 05:03:43;;;;;;;4.87;3.20;;;14.00;99.90;;;;;;5041087;28;20645;-80
2021/05/11 05:06:09;;;;;;;4.03;3.23;;;14.30;99.90;;;;;;5043293;28;20181;-79
2021/05/11 05:08:35;;;;;;;3.73;3.00;;;14.40;99.90;;;;;;5020675;28;20214;-78
2021/05/11 05:11:03;;;;;;;3.47;3.17;;;14.50;99.90;;;;;;5028085;28;20202;-78
2021/05/11 05:13:29;;;;;;;4.73;3.20;;;14.50;99.90;;;;;;5018990;28;20536;-81
2021/05/11 05:15:56;;;;;;;3.73;3.00;;;14.60;99.90;;;;;;5005652;28;20172;-79
2021/05/11 05:18:22;;;;;;;4.07;3.37;;;14.70;99.90;;;;;;5030545;28;20186;-83
2021/05/11 05:20:49;;;;;;;3.60;3.03;;;14.80;99.90;;;;;;5008402;28;20244;-81
2021/05/11 05:23:16;;;;;;;3.23;2.80;;;15.00;99.90;;;;;;5020613;28;20315;-78
2021/05/11 05:25:46;;;;;;;4.07;3.23;;;15.00;99.90;;;;;;5004301;28;20178;-79
2021/05/11 05:28:13;;;;;;;3.80;3.27;;;15.00;99.90;;;;;;5019302;28;20665;-82
2021/05/11 05:30:39;;;;;;;4.90;3.27;;;15.00;99.90;;;;;;5003057;28;20661;-82
2021/05/11 05:33:06;;;;;;;3.30;2.80;;;14.90;99.90;;;;;;5018537;28;20202;-78
2021/05/11 05:35:33;;;;;;;4.53;3.30;;;14.90;99.90;;;;;;5004784;28;20761;-81
2021/05/11 05:37:59;;;;;;;6.27;3.20;;;14.80;99.90;;;;;;5001619;28;20194;-77
2021/05/11 05:40:25;;;;;;;5.17;3.77;;;14.80;99.90;;;;;;5001745;28;20199;-77
2021/05/11 05:42:51;;;;;;;3.00;2.70;;;14.70;99.90;;;;;;5017912;28;20164;-77
2021/05/11 05:45:17;;;;;;;3.20;2.90;;;14.60;99.90;;;;;;5019430;28;20660;-78
2021/05/11 05:47:51;;;;;;;5.83;3.03;;;14.60;99.90;;;;;;5008550;28;20203;-78
2021/05/11 05:50:25;;;;;;;4.77;3.50;;;14.70;99.90;;;;;;5022472;28;20178;-78
2021/05/11 05:52:59;;;;;;;5.30;3.40;;;14.50;99.90;;;;;;5018012;28;20174;-78
2021/05/11 05:55:25;;;;;;;3.97;3.57;;;14.50;99.90;;;;;;5002518;28;20179;-78
2021/05/11 05:57:51;;;;;;;4.03;3.40;;;14.50;99.90;;;;;;5007751;28;20223;-81
2021/05/11 06:00:18;;;;;;;3.77;3.30;;;14.50;99.90;;;;;;5007636;28;20662;-81
2021/05/11 06:02:48;;;;;;;5.17;3.37;;;14.60;99.90;;;;;;5003003;28;20179;-79
2021/05/11 06:05:14;;;;;;;3.53;3.23;;;14.60;99.90;;;;;;5005175;28;20179;-84
2021/05/11 06:07:40;;;;;;;4.20;3.50;;;14.60;99.90;;;;;;5009299;28;20222;-80
2021/05/11 06:10:09;;;;;;;3.83;3.30;;;14.70;99.90;;;;;;5010710;28;20533;-81
2021/05/11 06:12:41;;;;;;;21.73;16.93;;;14.70;99.90;;;;;;5019850;28;20221;-83
2021/05/11 06:17:41;;;;;;;4.73;3.73;;;14.90;99.90;;;;;;5032979;28;20205;-82
2021/05/11 06:20:08;;;;;;;4.47;3.63;;;14.80;99.90;;;;;;5025057;28;20280;-81
2021/05/11 06:22:34;;;;;;;4.70;3.60;;;14.90;99.90;;;;;;5013063;28;20179;-83
2021/05/11 06:25:00;;;;;;;4.60;3.40;;;15.00;99.90;;;;;;5030976;28;20253;-79
2021/05/11 06:27:25;;;;;;;3.60;3.30;;;15.10;99.90;;;;;;5051119;28;20198;-79
2021/05/11 06:29:56;;;;;;;3.60;3.30;;;15.10;99.90;;;;;;5047212;28;20182;-82
2021/05/11 06:32:22;;;;;;;4.13;3.73;;;15.20;99.90;;;;;;5028569;28;20238;-82
2021/05/11 06:34:55;;;;;;;4.57;3.60;;;15.20;99.90;;;;;;5027453;28;20183;-82
2021/05/11 06:37:21;;;;;;;4.70;3.50;;;15.20;99.90;;;;;;5016406;28;20195;-84
2021/05/11 06:39:49;;;;;;;4.03;3.60;;;15.20;99.90;;;;;;5027967;28;20174;-82
2021/05/11 06:42:21;;;;;;;4.00;3.67;;;15.30;99.90;;;;;;5033535;28;20204;-82
2021/05/11 06:45:01;;;;;;;4.93;3.87;;;15.40;99.90;;;;;;5047457;28;20170;-82
2021/05/11 06:50:13;;;;;;;5.33;4.30;;;15.40;99.90;;;;;;5022528;28;20178;-84
2021/05/11 06:52:43;;;;;;;5.97;4.27;;;15.40;99.90;;;;;;5025347;28;20190;-82
2021/05/11 06:55:13;;;;;;;7.33;6.43;;;15.30;99.90;;;;;;5007021;28;20235;-83
2021/05/11 06:57:39;;;;;;;7.03;5.83;;;15.20;99.90;;;;;;5008643;28;20235;-83
2021/05/11 07:00:05;;;;;;;5.40;4.73;;;15.20;99.90;;;;;;5007842;28;20213;-79
2021/05/11 07:02:31;;;;;;;5.23;4.73;;;15.10;99.90;;;;;;5025058;28;20183;-82
2021/05/11 07:04:57;;;;;;;6.57;4.90;;;15.20;99.90;;;;;;5006598;28;20190;-78
2021/05/11 07:07:22;;;;;;;5.43;4.93;;;15.20;99.90;;;;;;5004551;28;20261;-80
2021/05/11 07:14:59;;;;;;;5.93;5.33;;;15.40;99.90;;;;;;5021235;28;20223;-80
2021/05/11 07:17:25;;;;;;;6.20;4.67;;;15.40;99.90;;;;;;5017669;28;20186;-78
2021/05/11 07:19:51;;;;;;;6.40;5.53;;;15.40;99.90;;;;;;5018923;28;20171;-80
2021/05/11 07:22:17;;;;;;;7.07;5.37;;;15.40;99.90;;;;;;5042092;28;20166;-83
2021/05/11 07:24:45;;;;;;;7.10;5.90;;;15.30;99.90;;;;;;5038437;28;20251;-80
2021/05/11 07:27:20;;;;;;;7.47;6.03;;;15.30;99.90;;;;;;5022511;28;20202;-80
2021/05/11 07:29:53;;;;;;;7.23;5.97;;;15.40;99.90;;;;;;5040748;28;20522;-80
2021/05/11 07:32:19;;;;;;;7.53;6.50;;;15.40;99.90;;;;;;5052799;28;20439;-80
2021/05/11 07:34:47;;;;;;;6.33;5.73;;;15.50;99.90;;;;;;5003845;28;20217;-83
2021/05/11 07:37:13;;;;;;;10.67;9.57;;;15.50;99.90;;;;;;5036677;28;20191;-80
2021/05/11 07:39:40;;;;;;;7.83;7.03;;;15.50;99.90;;;;;;5051463;28;20208;-85
2021/05/11 07:42:06;;;;;;;8.17;6.63;;;15.60;99.90;;;;;;5022217;28;20185;-82
2021/05/11 07:44:34;;;;;;;7.20;6.50;;;15.50;99.90;;;;;;5038087;28;20178;-81
2021/05/11 07:47:15;;;;;;;6.77;5.97;;;15.50;99.90;;;;;;5022707;28;20202;-82
2021/05/11 07:56:39;;;;;;;6.83;5.90;;;15.40;99.90;;;;;;5035624;28;20209;-79
2021/05/11 08:15:04;;;;;;;2.87;2.20;;;14.80;99.90;;;;;;5024126;28;20183;-79
2021/05/11 08:17:33;;;;;;;3.13;2.80;;;14.80;99.90;;;;;;5055828;28;20234;-79
2021/05/11 08:27:45;;;;;;;3.77;2.97;;;14.90;99.90;;;;;;5075336;28;20217;-82
2021/05/11 08:30:11;;;;;;;4.83;2.77;;;15.00;99.90;;;;;;5059931;28;20178;-84
2021/05/11 08:32:36;;;;;;;2.67;2.40;;;15.00;99.90;;;;;;5041981;28;20209;-85
2021/05/11 08:35:03;;;;;;;3.00;2.13;;;15.20;99.90;;;;;;5057620;28;20166;-84
2021/05/11 08:37:28;;;;;;;3.33;2.00;;;15.30;99.90;;;;;;5057532;28;20661;-86
2021/05/11 08:39:54;;;;;;;1.93;1.83;;;15.60;99.90;;;;;;5073356;28;20192;-86
2021/05/11 08:42:19;;;;;;;8.60;5.70;;;15.70;99.90;;;;;;5056633;28;20194;-83
2021/05/11 08:44:45;;;;;;;2.90;2.07;;;15.80;99.90;;;;;;5040515;28;20178;-84
2021/05/11 08:47:11;;;;;;;2.87;1.60;;;16.00;99.90;;;;;;5055101;28;20205;-85
2021/05/11 08:49:39;;;;;;;2.50;1.37;;;16.00;99.90;;;;;;5037062;28;20186;-81
2021/05/11 08:52:16;;;;;;;1.97;1.30;;;16.10;99.90;;;;;;5021856;28;20236;-83
2021/05/11 09:25:13;;;;;;;2.83;1.30;;;16.70;99.90;;;;;;5052043;28;20217;-80
2021/05/11 09:32:46;;;;;;;1.13;0.90;;;16.90;99.90;;;;;;5051588;28;20210;-79
2021/05/11 09:45:05;;;;;;;1.47;1.10;;;17.00;99.90;;;;;;5051634;28;20184;-79
2021/05/11 09:55:12;;;;;;;1.63;1.30;;;16.90;99.90;;;;;;5034414;28;20259;-79
2021/05/11 09:57:48;;;;;;;1.80;1.60;;;17.00;99.90;;;;;;5028154;28;20654;-78
2021/05/11 10:48:54;;;;;;;2.70;1.80;;;16.00;99.90;;;;;;4987373;28;20648;-72
2021/05/11 10:51:22;;;;;;;3.33;2.17;;;16.00;99.90;;;;;;4975370;28;20279;-78
2021/05/11 10:54:07;;;;;;;3.37;2.10;;;15.90;99.90;;;;;;4978211;28;20184;-79
2021/05/11 10:56:37;;;;;;;3.70;2.47;;;15.90;99.90;;;;;;4977349;28;20187;-76
2021/05/11 11:02:03;;;;;;;5.27;3.53;;;15.90;99.90;;;;;;4987269;28;20200;-77
2021/05/11 11:04:32;;;;;;;7.63;3.00;;;15.90;99.90;;;;;;4991913;28;20827;-77
2021/05/11 11:07:00;;;;;;;3.67;2.50;;;16.00;99.90;;;;;;4958337;28;20648;-76
2021/05/11 11:09:28;;;;;;;4.70;2.13;;;16.00;99.90;;;;;;4992152;28;20204;-78
2021/05/11 11:11:53;;;;;;;4.57;2.57;;;16.10;99.90;;;;;;5006850;28;20270;-78
2021/05/11 11:14:19;;;;;;;2.57;1.97;;;16.00;99.90;;;;;;5007685;28;20636;-80
2021/05/11 11:16:45;;;;;;;4.10;2.30;;;16.00;99.90;;;;;;5005415;28;20211;-80
2021/05/11 11:19:12;;;;;;;3.97;1.97;;;15.90;99.90;;;;;;4976772;28;20255;-74
2021/05/11 11:24:36;;;;;;;2.77;1.60;;;15.80;99.90;;;;;;5006951;28;20196;-75
2021/05/11 11:27:02;;;;;;;5.40;2.03;;;15.70;99.90;;;;;;5007234;28;20164;-75
2021/05/11 11:29:28;;;;;;;2.67;2.00;;;15.70;99.90;;;;;;5008556;28;20183;-74
2021/05/11 11:31:54;;;;;;;2.77;1.70;;;15.70;99.90;;;;;;5008482;28;20204;-76
2021/05/11 11:34:35;;;;;;;3.70;1.50;;;15.60;99.90;;;;;;5008299;28;20264;-74
2021/05/11 11:37:09;;;;;;;2.83;1.97;;;15.60;99.90;;;;;;4988525;28;20173;-74
2021/05/11 11:39:45;;;;;;;1.97;1.70;;;15.60;99.90;;;;;;4957049;28;20177;-74
2021/05/11 11:42:37;;;;;;;2.57;2.00;;;15.50;99.90;;;;;;4972666;28;20176;-74
2021/05/11 11:45:04;;;;;;;2.43;2.03;;;15.60;99.90;;;;;;4942718;28;20173;-74
2021/05/11 11:47:32;;;;;;;3.60;2.07;;;15.50;99.90;;;;;;4972177;28;20294;-76
2021/05/11 11:50:07;;;;;;;4.30;3.90;;;15.60;99.90;;;;;;4987781;28;20291;-74
2021/05/11 12:00:14;;;;;;;4.27;2.50;;;15.50;99.90;;;;;;5004498;28;20195;-75
2021/05/11 12:03:00;;;;;;;4.07;2.00;;;15.60;99.90;;;;;;4991581;28;20185;-74
2021/05/11 12:05:33;;;;;;;3.60;2.80;;;15.60;99.90;;;;;;4991549;28;20183;-75
2021/05/11 12:10:49;;;;;;;2.67;2.40;;;15.50;99.90;;;;;;4991398;28;20189;-74
2021/05/11 12:13:35;;;;;;;3.50;2.50;;;15.40;99.90;;;;;;4992585;28;20176;-74
2021/05/11 12:16:20;;;;;;;5.47;2.60;;;15.40;99.90;;;;;;4991482;28;20669;-74
2021/05/11 12:19:07;;;;;;;2.70;2.50;;;15.40;99.90;;;;;;4992255;28;20196;-71
2021/05/11 12:21:51;;;;;;;3.20;2.33;;;15.30;99.90;;;;;;4983664;28;20173;-70
2021/05/11 12:24:17;;;;;;;4.20;2.27;;;15.20;99.90;;;;;;4988693;28;20216;-70
2021/05/11 12:26:44;;;;;;;2.40;2.20;;;15.10;99.90;;;;;;4978039;28;20664;-71
2021/05/11 12:29:10;;;;;;;3.53;2.13;;;15.10;99.90;;;;;;4975342;28;20290;-75
2021/05/11 12:31:56;;;;;;;4.77;2.93;;;15.20;99.90;;;;;;4993201;28;20252;-74
2021/05/11 12:34:23;;;;;;;3.10;2.17;;;15.10;99.90;;;;;;4972605;28;20570;-75
2021/05/11 12:36:51;;;;;;;2.50;2.30;;;15.00;99.90;;;;;;4971951;28;20231;-74
2021/05/11 12:42:16;;;;;;;3.33;2.47;;;15.00;99.90;;;;;;4976024;28;20261;-74
2021/05/11 12:44:41;;;;;;;4.30;3.07;;;14.90;99.90;;;;;;4976205;28;20225;-73
2021/05/11 12:47:08;;;;;;;4.17;2.90;;;14.70;99.90;;;;;;4987429;28;20223;-75
2021/05/11 12:49:34;;;;;;;5.60;3.57;;;14.60;99.90;;;;;;4989866;28;20181;-73
2021/05/11 12:52:01;;;;;;;3.40;3.00;;;14.50;99.90;;;;;;4974394;28;20208;-73
2021/05/11 12:54:45;;;;;;;3.43;3.13;;;14.40;99.90;;;;;;5001387;28;20235;-73
2021/05/11 13:27:15;;;;;;;5.13;4.53;;;14.20;99.90;;;;;;5003915;28;20630;-72
2021/05/11 13:32:34;;;;;;;5.07;4.67;;;14.30;99.90;;;;;;5006834;28;20743;-73
2021/05/11 13:35:01;;;;;;;6.23;5.00;;;14.30;99.90;;;;;;5006642;28;20723;-72
2021/05/11 13:37:28;;;;;;;5.80;5.20;;;14.30;99.90;;;;;;5009624;28;20192;-72
2021/05/11 13:39:54;;;;;;;5.70;5.10;;;14.30;99.90;;;;;;4993179;28;20172;-73
2021/05/11 13:42:19;;;;;;;6.90;5.17;;;14.20;99.90;;;;;;5008758;28;20250;-73
2021/05/11 13:44:45;;;;;;;7.03;6.33;;;14.20;99.90;;;;;;4989642;28;20653;-73
2021/05/11 13:47:10;;;;;;;8.00;6.57;;;14.20;99.90;;;;;;5009729;28;20188;-73
2021/05/11 13:49:36;;;;;;;6.13;5.47;;;14.40;99.90;;;;;;5007303;28;20678;-73
2021/05/11 13:52:02;;;;;;;6.70;6.00;;;14.50;99.90;;;;;;4974740;28;20705;-73
2021/05/11 13:54:27;;;;;;;6.10;5.50;;;14.40;99.90;;;;;;4974578;28;20180;-73
2021/05/11 14:02:39;;;;;;;5.70;5.20;;;14.50;99.90;;;;;;5007664;28;20721;-74
2021/05/11 14:05:05;;;;;;;6.37;5.77;;;14.50;99.90;;;;;;4995161;28;20192;-73
2021/05/11 14:07:31;;;;;;;7.20;6.50;;;14.50;99.90;;;;;;5008807;28;20212;-73
2021/05/11 14:09:57;;;;;;;8.83;6.73;;;14.50;99.90;;;;;;5009977;28;20180;-73
2021/05/11 14:12:23;;;;;;;6.87;6.27;;;14.50;99.90;;;;;;4993492;28;20219;-73
2021/05/11 14:14:48;;;;;;;6.97;6.27;;;14.50;99.90;;;;;;5010013;28;20168;-73
2021/05/11 14:17:14;;;;;;;7.53;6.83;;;14.60;99.90;;;;;;4988534;28;20548;-75
2021/05/11 14:19:40;;;;;;;7.20;6.50;;;14.60;99.90;;;;;;4990776;28;20664;-74
2021/05/11 14:22:05;;;;;;;8.27;7.40;;;14.60;99.90;;;;;;4990677;28;20224;-75
2021/05/11 14:24:31;;;;;;;7.90;7.17;;;14.70;99.90;;;;;;4990836;28;20181;-76
2021/05/11 14:26:56;;;;;;;7.63;6.93;;;14.70;99.90;;;;;;4974396;28;20184;-74
2021/05/11 14:29:22;;;;;;;7.87;7.17;;;14.80;99.90;;;;;;4991394;28;20176;-76
2021/05/11 14:31:48;;;;;;;7.93;7.23;;;14.80;99.90;;;;;;4990488;28;20204;-75
2021/05/11 14:34:14;;;;;;;6.47;5.87;;;14.80;99.90;;;;;;4990264;28;20169;-73
2021/05/11 14:36:39;;;;;;;6.40;5.80;;;14.70;99.90;;;;;;4973643;28;20288;-73
2021/05/11 14:39:05;;;;;;;6.37;5.80;;;14.70;99.90;;;;;;4989892;28;20696;-73
2021/05/11 14:41:31;;;;;;;6.90;6.30;;;14.70;99.90;;;;;;4989879;28;20247;-73
2021/05/11 14:43:56;;;;;;;7.43;6.73;;;14.70;99.90;;;;;;4989902;28;20173;-74
2021/05/11 14:46:22;;;;;;;6.67;6.07;;;14.70;99.90;;;;;;4973549;28;20668;-74
2021/05/11 14:48:48;;;;;;;6.23;5.63;;;14.60;99.90;;;;;;4974758;28;20205;-74
2021/05/11 14:51:13;;;;;;;6.40;5.80;;;14.60;99.90;;;;;;4989683;28;20201;-73
2021/05/11 14:53:39;;;;;;;6.57;5.97;;;14.60;99.90;;;;;;4989820;28;20175;-74
2021/05/11 14:56:05;;;;;;;6.40;5.90;;;14.70;99.90;;;;;;4974438;28;20645;-74
2021/05/11 14:58:30;;;;;;;6.50;5.90;;;14.70;99.90;;;;;;4973208;28;20201;-74
2021/05/11 15:00:56;;;;;;;6.57;5.97;;;14.70;99.90;;;;;;4973394;28;20653;-74
2021/05/11 15:03:21;;;;;;;9.00;7.00;;;14.70;99.90;;;;;;4994623;28;20192;-74
2021/05/11 15:05:47;;;;;;;6.83;6.13;;;14.80;99.90;;;;;;4960299;28;20180;-74
2021/05/11 15:08:13;;;;;;;7.00;6.33;;;14.80;99.90;;;;;;4976346;28;20223;-75
2021/05/11 15:10:38;;;;;;;7.13;6.43;;;14.70;99.90;;;;;;4992504;28;20263;-74
2021/05/11 15:13:04;;;;;;;6.07;5.57;;;14.70;99.90;;;;;;4960217;28;20242;-74
2021/05/11 15:15:30;;;;;;;6.80;6.10;;;14.70;99.90;;;;;;4992341;28;20173;-74
2021/05/11 15:18:01;;;;;;;6.90;6.23;;;14.70;99.90;;;;;;4976296;28;20199;-74
2021/05/11 15:20:26;;;;;;;7.13;6.50;;;14.70;99.90;;;;;;4992587;28;20207;-74
2021/05/11 15:22:52;;;;;;;7.50;6.80;;;14.80;99.90;;;;;;4989458;28;20751;-74
2021/05/11 15:25:21;;;;;;;6.57;5.87;;;14.90;99.90;;;;;;4982211;28;20673;-74
2021/05/11 15:27:47;;;;;;;6.70;6.10;;;14.90;99.90;;;;;;4972942;28;20571;-74
2021/05/11 15:30:13;;;;;;;6.90;6.20;;;14.90;99.90;;;;;;4956823;28;20185;-74
2021/05/11 15:32:53;;;;;;;7.20;6.50;;;14.90;99.90;;;;;;4956628;28;20267;-74
2021/05/11 15:35:21;;;;;;;6.90;6.20;;;15.00;99.90;;;;;;4972551;28;20179;-74
2021/05/11 15:37:52;;;;;;;7.67;6.43;;;15.00;99.90;;;;;;4956980;28;20276;-77
2021/05/11 15:40:18;;;;;;;6.97;6.27;;;15.20;99.90;;;;;;4980508;28;20224;-73
2021/05/11 15:42:44;;;;;;;7.03;6.40;;;15.10;99.90;;;;;;4983047;28;20184;-74
2021/05/11 15:45:10;;;;;;;6.80;6.17;;;15.10;99.90;;;;;;4991802;28;20209;-73
2021/05/11 15:47:51;;;;;;;7.20;6.43;;;15.20;99.90;;;;;;4977527;28;20209;-74
2021/05/11 15:50:18;;;;;;;7.33;6.63;;;15.30;99.90;;;;;;5006348;28;20177;-73
2021/05/11 15:52:43;;;;;;;8.20;7.40;;;15.20;99.90;;;;;;5008247;28;20667;-74
2021/05/11 15:55:09;;;;;;;6.97;6.27;;;15.20;99.90;;;;;;5008287;28;20219;-74
2021/05/11 15:57:35;;;;;;;7.13;6.43;;;15.20;99.90;;;;;;4991889;28;20203;-76
2021/05/11 16:00:00;;;;;;;11.37;6.33;;;15.20;99.90;;;;;;4993253;28;20271;-74
2021/05/11 16:02:26;;;;;;;8.13;7.33;;;15.20;99.90;;;;;;5007884;28;20190;-77
2021/05/11 16:04:51;;;;;;;7.83;6.97;;;15.10;99.90;;;;;;5007976;28;20203;-74
2021/05/11 16:07:17;;;;;;;7.53;6.80;;;15.10;99.90;;;;;;4991865;28;20226;-78
2021/05/11 16:09:43;;;;;;;7.40;6.70;;;15.10;99.90;;;;;;5053522;22;20228;-78
2021/05/11 16:12:09;;;;;;;8.37;7.30;;;15.20;99.90;;;;;;5020302;28;20217;-78
2021/05/11 16:14:34;;;;;;;7.77;6.53;;;15.20;99.90;;;;;;5024172;28;20337;-78
2021/05/11 16:17:00;;;;;;;7.93;6.73;;;15.20;99.90;;;;;;4998318;28;20225;-78
2021/05/11 16:19:29;;;;;;;9.60;7.27;;;15.20;99.90;;;;;;5016395;28;20185;-78
2021/05/11 16:21:54;;;;;;;8.93;7.47;;;15.20;99.90;;;;;;5017627;28;20839;-78
2021/05/11 16:24:20;;;;;;;8.07;7.23;;;15.30;99.90;;;;;;5032894;28;20296;-77
2021/05/11 16:26:45;;;;;;;8.07;7.27;;;15.30;99.90;;;;;;5032225;28;20237;-78
2021/05/11 16:29:11;;;;;;;10.00;7.87;;;15.30;99.90;;;;;;5016255;28;20667;-78
2021/05/11 16:31:36;;;;;;;10.97;8.90;;;15.20;99.90;;;;;;5015936;28;20576;-78
2021/05/11 16:34:03;;;;;;;10.57;8.60;;;15.30;99.90;;;;;;5016344;28;20190;-78
2021/05/11 16:36:29;;;;;;;10.60;9.03;;;15.30;99.90;;;;;;5004822;28;20210;-78
2021/05/11 16:38:54;;;;;;;9.67;8.07;;;15.30;99.90;;;;;;5004157;28;20659;-79
2021/05/11 16:41:20;;;;;;;9.07;8.07;;;15.30;99.90;;;;;;5020626;28;20197;-78
2021/05/11 16:43:45;;;;;;;8.33;7.53;;;15.40;99.90;;;;;;5003754;28;20198;-78
2021/05/11 16:46:13;;;;;;;9.90;8.80;;;15.30;99.90;;;;;;5019858;28;20186;-79
2021/05/11 16:48:38;;;;;;;10.20;8.83;;;15.30;99.90;;;;;;5021332;28;20576;-78
2021/05/11 16:51:04;;;;;;;10.17;8.57;;;15.40;99.90;;;;;;5035574;28;20198;-79
2021/05/11 16:53:30;;;;;;;10.23;8.77;;;15.50;99.90;;;;;;5003890;28;20206;-79
2021/05/11 16:55:55;;;;;;;10.77;9.10;;;15.50;99.90;;;;;;5004483;28;20185;-78
2021/05/11 16:58:21;;;;;;;10.97;9.60;;;15.50;99.90;;;;;;5000839;28;20203;-78
2021/05/11 17:00:47;;;;;;;10.37;9.10;;;15.40;99.90;;;;;;5017874;28;20191;-77
2021/05/11 17:03:14;;;;;;;9.53;8.53;;;15.30;99.90;;;;;;5017276;28;20179;-78
2021/05/11 17:05:40;;;;;;;10.70;8.83;;;15.40;99.90;;;;;;5013156;28;20175;-78
2021/05/11 17:08:07;;;;;;;10.07;9.07;;;15.40;99.90;;;;;;5006937;28;20681;-79
2021/05/11 17:10:33;;;;;;;10.50;8.70;;;15.30;99.90;;;;;;4984985;28;20172;-77
2021/05/11 17:13:00;;;;;;;11.30;9.30;;;15.30;99.90;;;;;;4984599;28;20219;-78
2021/05/11 17:15:26;;;;;;;11.80;9.53;;;15.30;99.90;;;;;;4988996;28;20198;-78
2021/05/11 17:17:51;;;;;;;9.80;8.80;;;15.30;99.90;;;;;;5000727;28;20724;-78
2021/05/11 17:20:19;;;;;;;10.77;9.47;;;15.30;99.90;;;;;;5020645;28;20222;-77